Time;durP1;ratioP1;P1;durP2;ratioP2;P2;SDS_P1;SDS_P2;PMS_P1;PMS_P2;Temp;Humidity;BMP_temperature;BMP_pressure;BME280_temperature;BME280_humidity;BME280_pressure;Samples;Min_cycle;Max_cycle;Signal;HPM_P1;HPM_P2
2023/07/19 00:00:55;;;;;;;17.30;6.37;;;;;;;25.62;58.29;100359.97;5038882;28;20022;-69
2023/07/19 00:03:21;;;;;;;15.20;6.10;;;;;;;25.55;58.39;100346.03;5037512;28;20017;-69
2023/07/19 00:05:48;;;;;;;15.20;6.22;;;;;;;25.48;58.15;100324.03;5038874;28;20470;-69
2023/07/19 00:08:14;;;;;;;17.35;6.13;;;;;;;25.44;58.56;100306.31;5058040;28;20040;-69
2023/07/19 00:10:40;;;;;;;15.07;5.72;;;;;;;25.49;58.43;100250.28;5062824;28;20017;-69
2023/07/19 00:13:05;;;;;;;13.03;6.00;;;;;;;25.60;58.35;100238.75;5039548;28;20026;-69
2023/07/19 00:15:31;;;;;;;14.95;6.13;;;;;;;25.61;58.51;100224.31;5045236;28;20052;-69
2023/07/19 00:17:56;;;;;;;15.83;5.43;;;;;;;25.63;58.15;100194.53;5037579;28;20022;-69
2023/07/19 00:20:22;;;;;;;14.90;5.67;;;;;;;25.71;57.88;100167.03;5038636;28;20030;-69
2023/07/19 00:22:47;;;;;;;14.90;5.50;;;;;;;25.75;57.56;100160.44;5045427;28;20021;-69
2023/07/19 00:25:13;;;;;;;13.40;5.53;;;;;;;25.76;57.90;100160.34;5045993;28;20465;-69
2023/07/19 00:27:38;;;;;;;12.37;5.63;;;;;;;25.77;57.53;100155.81;5038405;28;20024;-69
2023/07/19 00:30:04;;;;;;;18.13;5.57;;;;;;;25.79;57.81;100159.25;5038240;28;20025;-69
2023/07/19 00:32:29;;;;;;;10.95;5.57;;;;;;;25.84;57.31;100145.47;5038280;28;20021;-69
2023/07/19 00:34:54;;;;;;;13.13;5.10;;;;;;;25.85;56.99;100128.31;5038415;28;20061;-69
2023/07/19 00:37:20;;;;;;;16.97;5.20;;;;;;;25.83;57.34;100119.47;5038047;28;20045;-69
2023/07/19 00:39:45;;;;;;;12.35;5.40;;;;;;;25.82;56.89;100128.53;5041581;28;20689;-69
2023/07/19 00:42:11;;;;;;;13.50;5.17;;;;;;;25.72;57.21;100147.19;5039279;28;20028;-69
2023/07/19 00:44:36;;;;;;;13.30;5.00;;;;;;;25.69;57.30;100142.00;5046040;28;20052;-69
2023/07/19 00:47:02;;;;;;;15.63;5.60;;;;;;;25.69;57.19;100158.19;5038836;28;20040;-69
2023/07/19 00:49:32;;;;;;;13.32;4.53;;;;;;;25.67;57.73;100152.88;5038099;28;20025;-69
2023/07/19 00:52:02;;;;;;;12.27;4.72;;;;;;;25.67;57.41;100160.13;5037743;28;20034;-69
2023/07/19 00:54:29;;;;;;;11.55;4.43;;;;;;;25.62;57.11;100161.31;5049872;28;20068;-69
2023/07/19 00:56:55;;;;;;;12.33;4.33;;;;;;;25.51;57.51;100180.94;5041022;28;20417;-69
2023/07/19 00:59:22;;;;;;;13.43;4.80;;;;;;;25.41;57.51;100187.03;5044565;28;20021;-69
2023/07/19 01:01:50;;;;;;;17.75;5.22;;;;;;;25.32;58.23;100186.69;5044612;28;20032;-69
2023/07/19 01:04:16;;;;;;;10.93;4.03;;;;;;;25.23;58.33;100185.47;5057781;28;20108;-69
2023/07/19 01:06:42;;;;;;;15.40;4.30;;;;;;;25.19;58.25;100178.53;5057824;28;20203;-69
2023/07/19 01:09:11;;;;;;;12.57;4.53;;;;;;;25.19;58.33;100177.69;5056965;28;20413;-69
2023/07/19 01:11:36;;;;;;;13.07;4.45;;;;;;;25.15;58.42;100187.78;5055537;28;20512;-69
2023/07/19 01:14:02;;;;;;;10.80;4.17;;;;;;;25.10;58.56;100192.63;5037429;28;20406;-69
2023/07/19 01:16:27;;;;;;;12.47;4.67;;;;;;;24.98;58.66;100196.16;5044943;28;20025;-69
2023/07/19 01:18:52;;;;;;;10.43;4.45;;;;;;;24.87;59.17;100184.25;5044198;28;20063;-69
2023/07/19 01:21:18;;;;;;;11.97;4.50;;;;;;;24.79;59.03;100189.28;5057502;28;20035;-69
2023/07/19 01:23:43;;;;;;;14.83;4.83;;;;;;;24.70;59.60;100203.28;5056043;28;20070;-69
2023/07/19 01:26:08;;;;;;;11.77;4.90;;;;;;;24.63;59.78;100186.69;5037425;28;20029;-69
2023/07/19 01:28:34;;;;;;;14.38;4.43;;;;;;;24.62;59.72;100180.41;5035989;28;20052;-69
2023/07/19 01:31:06;;;;;;;12.67;4.57;;;;;;;24.58;60.10;100183.41;5035190;28;20033;-69
2023/07/19 01:33:32;;;;;;;12.45;4.65;;;;;;;24.54;60.13;100176.47;5037117;28;20029;-69
2023/07/19 01:35:58;;;;;;;13.67;4.33;;;;;;;24.50;60.43;100186.59;5037079;28;20033;-69
2023/07/19 01:38:23;;;;;;;14.50;4.70;;;;;;;24.45;60.22;100176.13;5036832;28;20034;-69
2023/07/19 01:40:48;;;;;;;15.10;4.40;;;;;;;24.39;60.80;100171.13;5041300;28;20033;-69
2023/07/19 01:43:14;;;;;;;10.73;4.60;;;;;;;24.36;60.86;100177.56;5037062;28;20057;-69
2023/07/19 01:45:39;;;;;;;11.40;4.30;;;;;;;24.35;60.64;100183.91;5047230;28;20033;-69
2023/07/19 01:48:06;;;;;;;15.27;4.85;;;;;;;24.34;60.92;100195.63;5035484;28;20031;-69
2023/07/19 01:50:31;;;;;;;13.90;4.27;;;;;;;24.32;60.85;100210.16;5037156;28;20497;-69
2023/07/19 01:52:57;;;;;;;11.40;4.72;;;;;;;24.22;61.67;100210.72;5036874;28;20493;-69
2023/07/19 01:55:23;;;;;;;11.90;4.50;;;;;;;24.18;61.73;100216.38;5049240;28;20033;-69
2023/07/19 01:57:48;;;;;;;11.70;4.27;;;;;;;24.12;61.46;100206.03;5046932;28;20021;-69
2023/07/19 02:00:14;;;;;;;12.27;4.57;;;;;;;24.03;61.76;100205.63;5036851;28;20033;-70
2023/07/19 02:02:39;;;;;;;13.03;4.60;;;;;;;23.93;62.48;100194.53;5036709;28;20485;-69
2023/07/19 02:05:05;;;;;;;12.60;4.67;;;;;;;23.87;62.29;100194.06;5036874;28;20347;-69
2023/07/19 02:07:30;;;;;;;14.18;4.15;;;;;;;23.85;62.20;100201.34;5050398;28;20025;-69
2023/07/19 02:09:56;;;;;;;11.87;4.13;;;;;;;23.82;62.44;100196.16;5054364;28;20052;-69
2023/07/19 02:12:21;;;;;;;13.90;4.77;;;;;;;23.78;62.26;100195.47;5049980;28;20076;-69
2023/07/19 02:14:47;;;;;;;13.70;4.37;;;;;;;23.75;62.56;100198.34;5040813;28;20032;-69
2023/07/19 02:17:12;;;;;;;14.20;4.57;;;;;;;23.74;62.56;100204.69;5043308;28;20104;-69
2023/07/19 02:19:37;;;;;;;12.40;5.10;;;;;;;23.69;62.79;100202.25;5036499;28;20108;-69
2023/07/19 02:22:03;;;;;;;11.23;4.30;;;;;;;23.62;63.10;100200.91;5035277;28;20260;-69
2023/07/19 02:24:29;;;;;;;12.30;4.20;;;;;;;23.57;63.18;100211.94;5040980;28;20030;-69
2023/07/19 02:26:54;;;;;;;10.23;4.40;;;;;;;23.58;62.98;100213.66;5036526;28;20115;-69
2023/07/19 02:29:19;;;;;;;11.13;4.20;;;;;;;23.55;63.23;100219.22;5036499;28;20025;-69
2023/07/19 02:31:45;;;;;;;9.20;4.07;;;;;;;23.53;63.10;100223.81;5036433;28;20442;-69
2023/07/19 02:34:10;;;;;;;13.93;4.20;;;;;;;23.50;63.11;100218.63;5036308;28;20393;-69
2023/07/19 02:36:37;;;;;;;12.07;4.00;;;;;;;23.51;63.14;100215.00;5036578;28;20174;-69
2023/07/19 02:39:03;;;;;;;12.07;4.38;;;;;;;23.53;63.09;100222.97;5036470;28;20021;-69
2023/07/19 02:41:29;;;;;;;11.02;4.47;;;;;;;23.56;63.19;100229.00;5043234;28;20049;-69
2023/07/19 02:43:54;;;;;;;10.85;3.85;;;;;;;23.56;62.95;100228.16;5042352;28;20109;-69
2023/07/19 02:46:20;;;;;;;12.13;3.80;;;;;;;23.54;62.92;100224.72;5047684;28;20116;-69
2023/07/19 02:48:45;;;;;;;12.57;3.90;;;;;;;23.47;63.21;100230.41;5040256;28;20108;-69
2023/07/19 02:51:11;;;;;;;10.43;3.95;;;;;;;23.44;63.27;100230.59;5040302;28;20032;-69
2023/07/19 02:53:37;;;;;;;12.30;4.30;;;;;;;23.44;63.56;100238.66;5038519;28;20453;-69
2023/07/19 02:56:02;;;;;;;13.32;4.68;;;;;;;23.37;63.64;100240.00;5053334;28;20068;-69
2023/07/19 02:58:28;;;;;;;9.13;4.10;;;;;;;23.30;63.60;100238.63;5049077;28;20030;-69
2023/07/19 03:00:54;;;;;;;10.98;3.90;;;;;;;23.23;64.00;100249.66;5039909;28;20500;-69
2023/07/19 03:03:20;;;;;;;12.77;4.57;;;;;;;23.21;64.22;100251.59;5039985;28;20029;-69
2023/07/19 03:05:45;;;;;;;11.07;3.80;;;;;;;23.18;64.11;100242.84;5039896;28;20029;-69
2023/07/19 03:08:11;;;;;;;10.30;4.00;;;;;;;23.17;63.86;100230.38;5058991;28;20032;-69
2023/07/19 03:10:38;;;;;;;11.05;4.10;;;;;;;23.14;63.86;100230.53;5054774;28;20031;-69
2023/07/19 03:13:03;;;;;;;11.70;4.40;;;;;;;23.12;63.87;100238.69;5059495;28;20032;-69
2023/07/19 03:15:32;;;;;;;12.07;4.30;;;;;;;23.05;64.22;100240.00;5059646;28;20029;-69
2023/07/19 03:18:00;;;;;;;9.68;4.22;;;;;;;23.03;64.08;100252.63;5039433;28;20037;-69
2023/07/19 03:20:27;;;;;;;10.70;4.13;;;;;;;23.01;64.03;100255.41;5039668;28;20029;-69
2023/07/19 03:22:54;;;;;;;13.43;4.07;;;;;;;22.97;63.95;100263.72;5039827;28;20445;-69
2023/07/19 03:25:19;;;;;;;13.38;4.15;;;;;;;22.97;64.03;100277.16;5043622;28;20041;-69
2023/07/19 03:27:44;;;;;;;10.00;3.70;;;;;;;22.93;63.91;100269.25;5038318;28;20079;-69
2023/07/19 03:30:10;;;;;;;11.80;4.33;;;;;;;22.89;63.88;100256.97;5039360;28;20018;-69
2023/07/19 03:32:36;;;;;;;13.40;4.60;;;;;;;22.85;64.06;100247.34;5046274;28;20021;-69
2023/07/19 03:35:01;;;;;;;11.70;4.43;;;;;;;22.82;64.28;100254.69;5058194;28;20033;-69
2023/07/19 03:37:28;;;;;;;11.70;4.50;;;;;;;22.79;64.14;100263.81;5057726;28;20032;-69
2023/07/19 03:39:54;;;;;;;15.00;4.40;;;;;;;22.75;64.23;100260.44;5057678;28;20508;-69
2023/07/19 03:42:20;;;;;;;13.43;3.90;;;;;;;22.76;63.77;100251.41;5039419;28;20112;-69
2023/07/19 03:44:45;;;;;;;11.90;4.27;;;;;;;22.79;64.03;100256.63;5049791;28;20025;-69
2023/07/19 03:47:10;;;;;;;13.37;4.17;;;;;;;22.83;63.68;100259.13;5039142;28;20383;-69
2023/07/19 03:49:36;;;;;;;10.98;4.20;;;;;;;22.79;63.80;100256.63;5039288;28;20025;-69
2023/07/19 03:52:01;;;;;;;12.23;4.30;;;;;;;22.70;64.01;100258.94;5045590;28;20037;-69
2023/07/19 03:54:27;;;;;;;12.30;4.33;;;;;;;22.69;63.68;100265.25;5061242;28;20654;-69
2023/07/19 03:56:52;;;;;;;10.73;4.27;;;;;;;22.71;63.85;100257.97;5041619;28;20042;-69
2023/07/19 03:59:18;;;;;;;11.60;3.97;;;;;;;22.72;63.70;100257.91;5045871;28;20417;-69
2023/07/19 04:01:43;;;;;;;16.02;4.22;;;;;;;22.70;63.73;100269.66;5037583;28;20075;-69
2023/07/19 04:04:12;;;;;;;14.10;4.40;;;;;;;22.65;63.77;100268.13;5039044;28;20056;-69
2023/07/19 04:06:37;;;;;;;9.90;4.07;;;;;;;22.61;63.67;100263.88;5045217;28;20017;-69
2023/07/19 04:09:02;;;;;;;12.17;4.23;;;;;;;22.57;63.54;100266.78;5058190;28;20044;-69
2023/07/19 04:11:28;;;;;;;11.73;4.07;;;;;;;22.55;63.70;100272.25;5057494;28;20057;-69
2023/07/19 04:13:54;;;;;;;14.10;4.73;;;;;;;22.53;63.88;100284.03;5038719;28;20064;-69
2023/07/19 04:16:21;;;;;;;14.20;4.37;;;;;;;22.51;63.96;100292.13;5045981;28;20052;-69
2023/07/19 04:18:46;;;;;;;9.10;3.97;;;;;;;22.52;63.72;100264.34;5038569;28;20278;-69
2023/07/19 04:21:12;;;;;;;9.38;3.83;;;;;;;22.55;63.71;100269.56;5037314;28;20481;-69
2023/07/19 04:23:37;;;;;;;10.77;4.00;;;;;;;22.61;63.60;100295.19;5041876;28;20021;-69
2023/07/19 04:26:05;;;;;;;16.53;4.77;;;;;;;22.65;63.25;100292.28;5038195;28;20021;-69
2023/07/19 04:28:30;;;;;;;10.90;4.15;;;;;;;22.69;63.20;100286.72;5038645;28;20442;-69
2023/07/19 04:30:56;;;;;;;11.37;4.00;;;;;;;22.72;63.15;100254.34;5036975;28;20053;-69
2023/07/19 04:33:21;;;;;;;13.05;4.30;;;;;;;22.75;62.95;100248.81;5038408;28;20036;-69
2023/07/19 04:35:47;;;;;;;13.73;4.40;;;;;;;22.75;62.75;100264.91;5037031;28;20113;-69
2023/07/19 04:38:12;;;;;;;13.37;4.10;;;;;;;22.76;62.90;100240.69;5038344;28;20026;-69
2023/07/19 04:40:38;;;;;;;10.73;4.07;;;;;;;22.77;62.70;100246.91;5043467;28;20046;-69
2023/07/19 04:43:04;;;;;;;10.43;3.93;;;;;;;22.73;62.56;100238.16;5038403;28;20032;-69
2023/07/19 04:45:30;;;;;;;11.07;4.00;;;;;;;22.72;62.59;100227.50;5049342;28;20026;-69
2023/07/19 04:47:56;;;;;;;13.50;4.47;;;;;;;22.73;62.42;100231.91;5038049;28;20030;-68
2023/07/19 04:50:24;;;;;;;9.45;3.90;;;;;;;22.71;62.68;100268.72;5036881;28;20024;-68
2023/07/19 04:52:50;;;;;;;10.02;3.92;;;;;;;22.70;62.51;100286.66;5038114;28;20466;-69
2023/07/19 04:55:16;;;;;;;12.00;4.22;;;;;;;22.67;62.72;100294.88;5052061;28;20113;-69
2023/07/19 04:57:41;;;;;;;10.07;4.03;;;;;;;22.72;62.67;100300.88;5048698;28;20056;-71
2023/07/19 05:00:11;;;;;;;11.93;3.78;;;;;;;22.79;62.30;100298.72;5039040;28;20025;-68
2023/07/19 05:02:40;;;;;;;11.73;4.33;;;;;;;22.85;62.04;100305.53;5038047;28;20021;-69
2023/07/19 05:05:07;;;;;;;12.90;4.50;;;;;;;22.80;61.88;100300.44;5054940;28;20570;-69
2023/07/19 05:07:37;;;;;;;8.93;3.88;;;;;;;22.81;61.82;100296.81;5057836;28;20025;-69
2023/07/19 05:10:03;;;;;;;12.30;4.20;;;;;;;22.77;61.80;100305.97;5056143;28;20027;-68
2023/07/19 05:12:30;;;;;;;10.93;4.35;;;;;;;22.77;61.75;100296.09;5048325;28;20033;-68
2023/07/19 05:14:56;;;;;;;10.60;4.33;;;;;;;22.79;61.56;100282.59;5039611;28;20025;-68
2023/07/19 05:17:21;;;;;;;10.20;3.80;;;;;;;22.83;61.56;100294.91;5042556;28;20022;-68
2023/07/19 05:19:47;;;;;;;10.50;3.97;;;;;;;22.84;61.40;100307.38;5037605;28;20032;-69
2023/07/19 05:22:12;;;;;;;12.17;4.20;;;;;;;22.90;61.19;100309.72;5037559;28;20040;-68
2023/07/19 05:24:37;;;;;;;11.10;4.07;;;;;;;22.97;60.81;100301.31;5041415;28;20022;-69
2023/07/19 05:27:03;;;;;;;15.17;4.20;;;;;;;22.97;60.84;100304.00;5037390;28;20404;-68
2023/07/19 05:29:28;;;;;;;9.27;4.78;;;;;;;22.96;60.49;100313.00;5037534;28;20109;-68
2023/07/19 05:31:54;;;;;;;11.60;4.17;;;;;;;22.97;60.50;100317.44;5035777;28;20093;-68
2023/07/19 05:34:21;;;;;;;14.13;3.93;;;;;;;22.98;60.50;100316.47;5037421;28;20044;-68
2023/07/19 05:36:46;;;;;;;11.38;4.18;;;;;;;23.00;60.30;100314.56;5037248;28;20025;-68
2023/07/19 05:39:11;;;;;;;13.27;4.37;;;;;;;22.98;60.18;100321.84;5037217;28;20025;-68
2023/07/19 05:41:37;;;;;;;10.77;4.15;;;;;;;22.98;59.94;100322.72;5041676;28;20100;-69
2023/07/19 05:44:02;;;;;;;12.40;4.80;;;;;;;22.97;59.78;100314.75;5041779;28;20083;-68
2023/07/19 05:46:28;;;;;;;10.00;4.17;;;;;;;22.96;59.59;100315.69;5041478;28;20443;-69
2023/07/19 05:48:53;;;;;;;13.50;4.40;;;;;;;22.96;59.44;100310.31;5037145;28;20025;-68
2023/07/19 05:51:19;;;;;;;13.15;4.50;;;;;;;22.98;59.33;100313.78;5037158;28;20496;-68
2023/07/19 05:53:44;;;;;;;9.70;4.07;;;;;;;23.00;59.10;100317.25;5037193;28;20410;-68
2023/07/19 05:56:10;;;;;;;12.68;4.40;;;;;;;23.04;58.88;100313.47;5047970;28;20049;-68
2023/07/19 05:58:35;;;;;;;9.43;4.67;;;;;;;23.05;58.69;100332.16;5046344;28;20053;-68
2023/07/19 06:01:04;;;;;;;12.77;4.37;;;;;;;23.08;58.42;100337.38;5051323;28;20033;-68
2023/07/19 06:03:29;;;;;;;11.75;4.30;;;;;;;23.06;57.89;100322.31;5056881;28;20051;-68
2023/07/19 06:05:54;;;;;;;10.00;4.43;;;;;;;23.04;57.91;100332.28;5056538;28;20035;-68
2023/07/19 06:08:20;;;;;;;15.20;4.22;;;;;;;23.10;57.80;100334.59;5056610;28;20056;-68
2023/07/19 06:10:45;;;;;;;13.97;4.10;;;;;;;23.18;57.52;100332.34;5062038;28;20058;-69
2023/07/19 06:13:14;;;;;;;11.00;4.13;;;;;;;23.31;57.16;100331.72;5036497;28;20033;-71
2023/07/19 06:15:39;;;;;;;10.55;4.20;;;;;;;23.32;56.09;100341.50;5045694;28;20397;-69
2023/07/19 06:18:04;;;;;;;10.43;4.30;;;;;;;23.32;56.22;100338.81;5042127;28;20028;-70
2023/07/19 06:20:30;;;;;;;9.23;4.33;;;;;;;23.34;56.06;100353.03;5042912;28;20034;-70
2023/07/19 06:22:55;;;;;;;11.50;4.47;;;;;;;23.40;55.76;100331.16;5036878;28;20018;-70
2023/07/19 06:25:21;;;;;;;11.90;4.43;;;;;;;23.44;55.07;100315.75;5040575;28;20036;-70
2023/07/19 06:27:46;;;;;;;10.13;3.97;;;;;;;23.46;54.57;100319.22;5036575;28;20057;-70
2023/07/19 06:30:12;;;;;;;9.63;4.07;;;;;;;23.54;54.39;100324.16;5036562;28;20029;-70
2023/07/19 06:32:38;;;;;;;11.98;4.40;;;;;;;23.57;54.03;100318.59;5036921;28;20033;-70
2023/07/19 06:35:05;;;;;;;9.10;4.05;;;;;;;23.58;53.60;100323.88;5035225;28;20032;-69
2023/07/19 06:37:31;;;;;;;9.67;4.03;;;;;;;23.51;53.49;100326.06;5036473;28;20022;-69
2023/07/19 06:39:57;;;;;;;9.75;3.90;;;;;;;23.45;53.64;100312.97;5040697;28;20028;-68
2023/07/19 06:42:22;;;;;;;10.20;4.20;;;;;;;23.48;53.86;100296.66;5036876;28;20500;-68
2023/07/19 06:44:48;;;;;;;8.85;3.60;;;;;;;23.61;53.39;100288.75;5046490;28;20432;-69
2023/07/19 06:47:14;;;;;;;9.43;3.27;;;;;;;23.88;52.66;100282.72;5036459;28;20056;-69
2023/07/19 06:49:40;;;;;;;11.68;3.95;;;;;;;24.06;51.77;100275.38;5034916;28;20083;-69
2023/07/19 06:52:06;;;;;;;9.80;3.93;;;;;;;24.31;51.15;100294.53;5035980;28;20033;-69
2023/07/19 06:54:32;;;;;;;10.48;4.10;;;;;;;24.29;50.89;100304.53;5046801;28;20063;-69
2023/07/19 06:56:57;;;;;;;11.13;4.43;;;;;;;24.25;51.15;100285.03;5043593;28;20049;-69
2023/07/19 06:59:22;;;;;;;10.10;4.28;;;;;;;24.19;51.09;100262.03;5042268;28;20021;-69
2023/07/19 07:01:48;;;;;;;12.33;3.60;;;;;;;24.15;51.19;100235.41;5036271;28;20037;-69
2023/07/19 07:04:13;;;;;;;9.77;3.80;;;;;;;24.16;51.26;100290.94;5036364;28;20060;-69
2023/07/19 07:06:39;;;;;;;9.93;3.90;;;;;;;24.15;50.87;100346.59;5041339;28;20036;-69
2023/07/19 07:09:04;;;;;;;10.43;3.95;;;;;;;24.10;50.70;100302.09;5055936;28;20076;-69
2023/07/19 07:11:30;;;;;;;10.90;3.83;;;;;;;24.04;50.67;100331.09;5054452;28;20036;-69
2023/07/19 07:13:55;;;;;;;12.07;4.10;;;;;;;24.11;50.44;100346.88;5036158;28;20030;-69
2023/07/19 07:16:20;;;;;;;10.03;3.73;;;;;;;24.16;50.44;100342.06;5043076;28;20087;-69
2023/07/19 07:18:46;;;;;;;12.73;4.13;;;;;;;24.17;50.11;100352.75;5049095;28;20104;-69
2023/07/19 07:21:11;;;;;;;11.13;3.95;;;;;;;24.19;49.83;100347.25;5056170;28;20025;-69
2023/07/19 07:23:36;;;;;;;12.17;3.60;;;;;;;24.15;49.45;100351.97;5055767;28;20442;-69
2023/07/19 07:26:02;;;;;;;8.67;3.53;;;;;;;24.17;49.16;100341.13;5036582;28;20025;-69
2023/07/19 07:28:27;;;;;;;12.07;3.77;;;;;;;24.25;49.21;100354.09;5037575;28;20140;-69
2023/07/19 07:30:52;;;;;;;10.60;3.93;;;;;;;24.30;49.18;100344.81;5039333;28;20026;-69
2023/07/19 07:33:19;;;;;;;9.02;3.72;;;;;;;24.42;48.85;100339.63;5039701;28;20129;-69
2023/07/19 07:35:45;;;;;;;9.73;4.00;;;;;;;24.46;48.43;100349.25;5039517;28;20481;-69
2023/07/19 07:38:11;;;;;;;7.70;4.00;;;;;;;24.47;47.80;100338.38;5039261;28;20040;-69
2023/07/19 07:40:37;;;;;;;11.73;4.20;;;;;;;24.56;47.69;100342.34;5044869;28;20417;-69
2023/07/19 07:43:02;;;;;;;9.63;4.13;;;;;;;24.64;47.49;100326.56;5039481;28;20049;-69
2023/07/19 07:45:28;;;;;;;11.13;4.00;;;;;;;24.82;47.22;100314.75;5050073;28;20061;-69
2023/07/19 07:47:53;;;;;;;11.10;3.85;;;;;;;24.97;47.20;100296.78;5039219;28;20513;-69
2023/07/19 07:50:20;;;;;;;9.87;4.47;;;;;;;25.21;46.29;100279.03;5039366;28;20025;-69
2023/07/19 07:52:45;;;;;;;9.65;4.20;;;;;;;25.39;46.01;100267.97;5047309;28;20040;-69
2023/07/19 07:55:11;;;;;;;11.00;4.22;;;;;;;25.32;45.65;100258.56;5057671;28;20048;-70
2023/07/19 07:57:37;;;;;;;8.53;3.77;;;;;;;25.23;46.26;100260.03;5048773;28;20024;-69
2023/07/19 08:00:11;;;;;;;11.38;3.95;;;;;;;25.18;46.23;100265.72;5040144;28;20029;-69
2023/07/19 08:02:37;;;;;;;9.68;4.22;;;;;;;25.13;46.32;100280.50;5039214;28;20049;-69
2023/07/19 08:05:04;;;;;;;8.23;3.80;;;;;;;25.02;45.79;100278.50;5039098;28;20053;-69
2023/07/19 08:07:30;;;;;;;17.35;4.03;;;;;;;24.84;45.97;100273.31;5052612;28;20021;-69
2023/07/19 08:09:55;;;;;;;12.17;4.20;;;;;;;24.76;46.36;100275.66;5056433;28;20036;-69
2023/07/19 08:12:21;;;;;;;10.50;4.13;;;;;;;24.77;46.42;100247.75;5052465;28;20108;-69
2023/07/19 08:14:46;;;;;;;12.03;4.20;;;;;;;24.80;46.34;100258.31;5038166;28;20029;-69
2023/07/19 08:17:12;;;;;;;10.70;4.00;;;;;;;24.84;46.47;100243.69;5044121;28;20021;-69
2023/07/19 08:19:38;;;;;;;8.33;3.87;;;;;;;24.87;46.37;100251.56;5038776;28;20037;-69
2023/07/19 08:22:05;;;;;;;9.35;3.90;;;;;;;24.96;45.91;100260.00;5038685;28;20109;-69
2023/07/19 08:24:31;;;;;;;8.23;3.80;;;;;;;25.13;45.67;100259.78;5042823;28;20065;-69
2023/07/19 08:26:56;;;;;;;12.43;4.20;;;;;;;25.38;45.43;100263.56;5038749;28;20072;-69
2023/07/19 08:29:22;;;;;;;9.20;4.03;;;;;;;25.60;45.25;100265.72;5038576;28;20026;-69
2023/07/19 08:31:48;;;;;;;9.02;4.50;;;;;;;25.76;44.57;100273.63;5038369;28;20033;-69
2023/07/19 08:34:13;;;;;;;11.03;4.50;;;;;;;26.03;44.59;100264.59;5037088;28;20588;-69
2023/07/19 08:36:38;;;;;;;10.23;4.25;;;;;;;26.42;44.61;100280.00;5038480;28;20080;-69
2023/07/19 08:39:04;;;;;;;9.57;3.97;;;;;;;26.81;43.92;100275.41;5037836;28;20064;-70
2023/07/19 08:41:32;;;;;;;11.43;4.00;;;;;;;27.11;43.34;100271.44;5043718;28;20025;-70
2023/07/19 08:43:58;;;;;;;10.20;3.92;;;;;;;27.35;42.76;100271.47;5040784;28;20028;-70
2023/07/19 08:46:24;;;;;;;8.52;4.03;;;;;;;27.43;42.43;100261.91;5045214;28;20037;-69
2023/07/19 08:48:49;;;;;;;9.77;3.80;;;;;;;27.56;42.07;100254.66;5043471;28;20025;-70
2023/07/19 08:51:16;;;;;;;10.87;4.20;;;;;;;27.65;42.06;100258.50;5058406;28;20481;-70
2023/07/19 08:53:42;;;;;;;11.20;4.07;;;;;;;27.72;41.54;100261.56;5053874;28;20086;-69
2023/07/19 08:56:10;;;;;;;10.60;4.20;;;;;;;27.70;41.28;100271.66;5038849;28;20136;-69
2023/07/19 08:58:39;;;;;;;10.20;3.97;;;;;;;27.72;41.27;100267.84;5048556;28;20029;-70
2023/07/19 09:01:05;;;;;;;10.55;4.25;;;;;;;27.77;40.86;100260.25;5038177;28;20039;-69
2023/07/19 09:03:30;;;;;;;10.50;3.77;;;;;;;27.80;40.69;100256.44;5037825;28;20557;-70
2023/07/19 09:05:55;;;;;;;8.57;4.13;;;;;;;27.75;40.58;100248.69;5038617;28;20572;-69
2023/07/19 09:08:21;;;;;;;10.13;4.13;;;;;;;27.75;40.83;100281.16;5056215;28;20029;-70
2023/07/19 09:10:46;;;;;;;10.77;4.30;;;;;;;27.73;40.80;100283.09;5061911;28;20108;-70
2023/07/19 09:13:20;;;;;;;8.23;4.33;;;;;;;27.62;39.85;100283.06;5037854;28;20466;-69
2023/07/19 09:15:48;;;;;;;11.57;4.45;;;;;;;27.55;40.71;100298.91;5044856;28;20466;-69
2023/07/19 09:18:14;;;;;;;9.50;4.18;;;;;;;27.47;41.14;100301.28;5037514;28;20029;-70
2023/07/19 09:20:40;;;;;;;9.43;4.87;;;;;;;27.43;41.23;100303.34;5037557;28;20029;-70
2023/07/19 09:23:06;;;;;;;9.47;4.23;;;;;;;27.52;41.17;100309.97;5037553;28;20260;-69
2023/07/19 09:25:33;;;;;;;9.43;4.13;;;;;;;27.62;41.01;100310.13;5041198;28;20049;-70
2023/07/19 09:28:06;;;;;;;10.07;4.18;;;;;;;27.68;41.11;100295.25;5037489;28;20029;-70
2023/07/19 09:30:32;;;;;;;8.53;3.90;;;;;;;27.69;40.96;100297.84;5037306;28;20440;-70
2023/07/19 09:33:00;;;;;;;10.55;4.20;;;;;;;27.60;40.89;100320.16;5037391;28;20071;-70
2023/07/19 09:35:28;;;;;;;9.17;3.83;;;;;;;27.49;41.08;100323.66;5037414;28;20052;-69
2023/07/19 09:37:54;;;;;;;12.38;4.85;;;;;;;27.43;41.33;100325.00;5037130;28;20104;-70
2023/07/19 09:40:20;;;;;;;12.50;4.53;;;;;;;27.35;41.38;100332.78;5041179;28;20037;-69
2023/07/19 09:42:48;;;;;;;9.15;4.10;;;;;;;27.29;41.14;100328.72;5037301;28;20036;-70
2023/07/19 09:45:16;;;;;;;9.40;3.97;;;;;;;27.18;41.36;100337.63;5051184;28;20036;-69
2023/07/19 09:47:43;;;;;;;13.68;4.40;;;;;;;27.10;42.02;100336.44;5056942;28;20024;-69
2023/07/19 09:50:09;;;;;;;11.05;4.30;;;;;;;27.01;41.91;100324.47;5056688;28;20083;-69
2023/07/19 09:52:37;;;;;;;11.50;4.03;;;;;;;26.92;41.64;100329.56;5056628;28;20032;-69
2023/07/19 09:55:05;;;;;;;9.25;4.30;;;;;;;26.81;41.84;100329.44;5055096;28;20033;-70
2023/07/19 09:57:33;;;;;;;15.23;4.45;;;;;;;26.73;42.08;100326.41;5044869;28;20107;-70
2023/07/19 09:59:59;;;;;;;11.57;4.10;;;;;;;26.66;42.44;100320.59;5037924;28;20037;-70
2023/07/19 10:02:26;;;;;;;10.13;4.47;;;;;;;26.60;42.61;100323.72;5036914;28;20026;-70
2023/07/19 10:04:51;;;;;;;7.87;3.73;;;;;;;26.51;42.78;100331.50;5036853;28;20036;-69
2023/07/19 10:07:21;;;;;;;9.88;4.20;;;;;;;26.50;42.33;100326.22;5048746;28;20029;-70
2023/07/19 10:09:49;;;;;;;11.38;3.97;;;;;;;26.51;42.65;100322.53;5053020;28;20037;-69
2023/07/19 10:12:18;;;;;;;8.67;4.30;;;;;;;26.53;42.82;100320.59;5049800;28;20037;-69
2023/07/19 10:15:00;;;;;;;11.10;4.50;;;;;;;26.63;42.93;100313.56;5037084;28;20401;-69
2023/07/19 10:17:25;;;;;;;13.40;4.85;;;;;;;26.84;42.11;100304.88;5040993;28;20032;-69
2023/07/19 10:20:12;;;;;;;11.50;4.43;;;;;;;27.06;41.71;100301.53;5036745;28;20033;-70
2023/07/19 10:22:58;;;;;;;9.90;4.35;;;;;;;27.30;41.64;100302.53;5036953;28;20030;-69
2023/07/19 10:25:31;;;;;;;14.23;4.63;;;;;;;27.64;41.25;100294.66;5039139;28;20029;-70
2023/07/19 10:28:10;;;;;;;10.65;3.95;;;;;;;27.91;40.75;100283.53;5036771;28;20137;-70
2023/07/19 10:30:55;;;;;;;8.30;4.13;;;;;;;28.19;40.57;100269.72;5036647;28;20029;-69
2023/07/19 10:33:28;;;;;;;9.77;3.70;;;;;;;28.55;39.94;100256.94;5036598;28;20021;-70
2023/07/19 10:36:12;;;;;;;10.38;4.22;;;;;;;28.83;39.64;100257.47;5044295;28;20021;-70
2023/07/19 10:38:37;;;;;;;9.73;3.90;;;;;;;28.99;38.72;100254.38;5050910;28;20026;-69
2023/07/19 10:41:05;;;;;;;11.10;4.10;;;;;;;28.99;39.04;100257.06;5050900;28;20032;-69
2023/07/19 10:43:32;;;;;;;9.93;4.78;;;;;;;28.99;39.11;100250.78;5054960;28;20024;-69
2023/07/19 10:46:03;;;;;;;9.20;3.78;;;;;;;29.02;39.26;100258.66;5046508;28;20037;-69
2023/07/19 10:48:33;;;;;;;10.43;4.03;;;;;;;29.18;39.07;100248.28;5035099;28;20068;-70
2023/07/19 10:51:00;;;;;;;8.53;3.87;;;;;;;29.41;38.67;100248.22;5044448;28;20048;-70
2023/07/19 10:53:26;;;;;;;10.45;4.05;;;;;;;29.58;38.24;100254.94;5041224;28;20029;-70
2023/07/19 10:55:53;;;;;;;9.48;4.00;;;;;;;29.81;38.10;100259.41;5046336;28;20049;-70
2023/07/19 10:58:19;;;;;;;10.38;3.55;;;;;;;29.88;38.52;100245.16;5046282;28;20079;-70
2023/07/19 11:00:45;;;;;;;10.17;3.77;;;;;;;29.97;38.25;100248.94;5044105;28;20021;-70
2023/07/19 11:03:15;;;;;;;10.85;4.00;;;;;;;30.11;37.52;100244.19;5043735;28;20087;-70
2023/07/19 11:05:47;;;;;;;7.68;3.47;;;;;;;30.25;37.87;100235.69;5047946;28;20494;-70
2023/07/19 11:08:23;;;;;;;10.75;3.97;;;;;;;30.29;38.08;100231.72;5048858;28;20025;-70
2023/07/19 11:10:50;;;;;;;11.53;3.80;;;;;;;30.44;37.72;100229.50;5047026;28;20056;-70
2023/07/19 11:13:19;;;;;;;8.70;3.75;;;;;;;30.49;37.76;100238.09;5049365;28;20393;-71
2023/07/19 11:15:49;;;;;;;9.48;3.60;;;;;;;30.55;37.51;100236.69;5049472;28;20482;-70